Larne, United Kingdom
Current Conditions -  °F | °C
As of 9:50 PM on Thursday 30 Oct 2014 (Local Time) from EGAC Reporting Station
Scattered Clouds Scattered Clouds  
Wind Chill: 59°   Ceiling: Unl
Heat Index: 59°   Visibility: 6mi
Dew Point: 55°   Wind: 12mph
Humidity: 88%   Direction: 160°SSE
Pressure: 29.8"   Gusts: NA
Location:  54.86°N, 5.81°W
Report Text: EGAC 302150Z 16010KT 9999 FEW012 SCT033 15/13 Q1009
Loading
Personal Weather Stations






























Interactive Weather Map
Tropical Storm Tracking
New forecast layout! Learn more

10-Day Weather Forecast

Advertisements
Track Severe Weather on mobile